createdAt,value
2023-07-25T00:01:05.212Z,100760.59
2023-07-25T00:03:31.848Z,100761.72
2023-07-25T00:05:58.336Z,100752.66
2023-07-25T00:08:25.858Z,100753.78
2023-07-25T00:10:52.365Z,100755.72
2023-07-25T00:13:19.399Z,100754.59
2023-07-25T00:15:45.841Z,100743.16
2023-07-25T00:18:12.347Z,100745.09
2023-07-25T00:20:38.754Z,100738.47
2023-07-25T00:23:05.221Z,100734.44
2023-07-25T00:25:31.712Z,100730.88
2023-07-25T00:27:58.242Z,100739.09
2023-07-25T00:30:25.164Z,100728.16
2023-07-25T00:32:51.723Z,100728.44
2023-07-25T00:35:18.157Z,100731.19
2023-07-25T00:37:44.606Z,100728.44
2023-07-25T00:40:11.324Z,100739.41
2023-07-25T00:42:37.715Z,100730.66
2023-07-25T00:45:04.388Z,100727.13
2023-07-25T00:47:30.913Z,100729.88
2023-07-25T00:49:57.402Z,100727.44
2023-07-25T00:52:23.883Z,100724.72
2023-07-25T00:54:50.808Z,100735.66
2023-07-25T00:57:17.972Z,100737.28
2023-07-25T00:59:44.825Z,100736.78
2023-07-25T01:02:13.506Z,100728.56
2023-07-25T01:04:40.744Z,100734.34
2023-07-25T01:07:07.319Z,100725.34
2023-07-25T01:09:37.738Z,100724.53
2023-07-25T01:12:05.380Z,100724.53
2023-07-25T01:14:33.179Z,100728.38
2023-07-25T01:17:03.922Z,100731.91
2023-07-25T01:19:30.895Z,100733.84
2023-07-25T01:21:57.922Z,100734.16
2023-07-25T01:24:24.642Z,100725.94
2023-07-25T01:26:51.094Z,100721.59
2023-07-25T01:29:17.593Z,100718.88
2023-07-25T01:31:44.010Z,100718.88
2023-07-25T01:34:10.461Z,100730.13
2023-07-25T01:36:36.884Z,100723.84
2023-07-25T01:39:03.328Z,100721.09
2023-07-25T01:41:30.102Z,100721.41
2023-07-25T01:43:56.711Z,100727.69
2023-07-25T01:46:23.121Z,100720.59
2023-07-25T01:48:50.035Z,100720.59
2023-07-25T01:51:16.528Z,100720.09
2023-07-25T01:53:42.950Z,100722.84
2023-07-25T01:56:09.374Z,100712.69
2023-07-25T01:58:35.778Z,100718.50
2023-07-25T02:01:02.268Z,100716.03
2023-07-25T02:03:28.787Z,100727.81
2023-07-25T02:05:55.235Z,100715.25
2023-07-25T02:08:21.626Z,100722.66
2023-07-25T02:10:48.057Z,100717.19
2023-07-25T02:13:14.465Z,100711.69
2023-07-25T02:15:40.857Z,100713.63
2023-07-25T02:18:07.312Z,100709.28
2023-07-25T02:20:33.925Z,100706.84
2023-07-25T02:23:00.820Z,100715.06
2023-07-25T02:25:27.427Z,100711.50
2023-07-25T02:27:53.844Z,100713.13
2023-07-25T02:30:21.640Z,100712.63
2023-07-25T02:32:48.255Z,100702.50
2023-07-25T02:35:15.682Z,100705.22
2023-07-25T02:37:42.357Z,100712.63
2023-07-25T02:40:08.982Z,100711.03
2023-07-25T02:42:35.682Z,100705.84
2023-07-25T02:45:02.308Z,100709.38
2023-07-25T02:47:28.930Z,100710.53
2023-07-25T02:49:55.418Z,100701.50
2023-07-25T02:52:22.043Z,100714.06
2023-07-25T02:54:48.464Z,100706.47
2023-07-25T02:57:15.042Z,100696.34
2023-07-25T02:59:41.481Z,100695.50
2023-07-25T03:02:08.262Z,100696.34
2023-07-25T03:04:34.681Z,100694.72
2023-07-25T03:07:01.123Z,100705.66
2023-07-25T03:09:27.794Z,100701.31
2023-07-25T03:11:54.236Z,100693.09
2023-07-25T03:14:20.975Z,100705.97
2023-07-25T03:16:47.485Z,100699.69
2023-07-25T03:19:14.018Z,100705.19
2023-07-25T03:21:40.427Z,100696.97
2023-07-25T03:24:06.954Z,100691.78
2023-07-25T03:26:33.361Z,100696.16
2023-07-25T03:28:59.775Z,100695.31
2023-07-25T03:31:26.200Z,100689.38
2023-07-25T03:33:53.227Z,100692.91
2023-07-25T03:36:19.635Z,100703.06
2023-07-25T03:38:46.054Z,100701.13
2023-07-25T03:41:12.472Z,100702.25
2023-07-25T03:43:38.856Z,100699.81
2023-07-25T03:46:05.358Z,100700.59
2023-07-25T03:48:33.180Z,100703.34
2023-07-25T03:50:59.560Z,100699.00
2023-07-25T03:53:26.182Z,100714.63
2023-07-25T03:55:52.760Z,100711.06
2023-07-25T03:58:19.149Z,100721.22
2023-07-25T04:00:45.768Z,100708.66
2023-07-25T04:03:15.451Z,100713.00
2023-07-25T04:05:42.353Z,100707.03
2023-07-25T04:08:08.781Z,100712.50
2023-07-25T04:10:35.194Z,100716.03
2023-07-25T04:13:01.603Z,100711.69
2023-07-25T04:15:27.991Z,100714.44
2023-07-25T04:17:54.573Z,100712.81
2023-07-25T04:20:21.026Z,100721.84
2023-07-25T04:22:47.427Z,100715.56
2023-07-25T04:25:13.833Z,100725.72
2023-07-25T04:27:40.216Z,100724.06
2023-07-25T04:30:06.943Z,100722.16
2023-07-25T04:32:33.399Z,100726.81
2023-07-25T04:34:59.992Z,100721.31
2023-07-25T04:37:26.440Z,100722.16
2023-07-25T04:39:52.877Z,100729.53
2023-07-25T04:42:19.253Z,100720.53
2023-07-25T04:44:45.892Z,100729.88
2023-07-25T04:47:12.350Z,100728.72
2023-07-25T04:49:38.801Z,100729.53
2023-07-25T04:52:05.492Z,100722.44
2023-07-25T04:54:31.896Z,100736.94
2023-07-25T04:56:58.309Z,100734.22
2023-07-25T04:59:24.714Z,100733.41
2023-07-25T05:01:51.186Z,100726.81
2023-07-25T05:04:17.654Z,100725.19
2023-07-25T05:06:44.282Z,100738.88
2023-07-25T05:09:10.723Z,100729.06
2023-07-25T05:11:37.123Z,100731.78
2023-07-25T05:14:03.536Z,100741.94
2023-07-25T05:16:29.968Z,100731.78
2023-07-25T05:18:56.438Z,100735.34
2023-07-25T05:21:22.940Z,100735.34
2023-07-25T05:23:49.336Z,100722.78
2023-07-25T05:26:15.808Z,100736.47
2023-07-25T05:28:42.290Z,100731.00
2023-07-25T05:31:08.727Z,100732.91
2023-07-25T05:33:35.176Z,100739.19
2023-07-25T05:36:04.937Z,100732.91
2023-07-25T05:38:31.327Z,100733.72
2023-07-25T05:40:57.799Z,100736.47
2023-07-25T05:43:24.230Z,100735.66
2023-07-25T05:45:50.718Z,100746.59
2023-07-25T05:48:17.156Z,100738.41
2023-07-25T05:50:43.536Z,100745.78
2023-07-25T05:53:09.970Z,100743.88
2023-07-25T05:55:36.417Z,100754.81
2023-07-25T05:58:02.981Z,100744.97
2023-07-25T06:00:29.419Z,100753.97
2023-07-25T06:02:55.939Z,100752.88
2023-07-25T06:05:22.385Z,100754.81
2023-07-25T06:07:48.816Z,100757.56
2023-07-25T06:10:15.275Z,100763.03
2023-07-25T06:12:43.248Z,100752.88
2023-07-25T06:15:10.097Z,100757.56
2023-07-25T06:17:36.533Z,100756.44
2023-07-25T06:20:03.094Z,100760.28
2023-07-25T06:22:29.533Z,100753.97
2023-07-25T06:24:56.080Z,100755.91
2023-07-25T06:27:24.986Z,100760.28
2023-07-25T06:29:53.000Z,100752.06
2023-07-25T06:32:19.483Z,100745.78
2023-07-25T06:34:45.948Z,100748.22
2023-07-25T06:37:12.393Z,100752.88
2023-07-25T06:39:38.803Z,100747.41
2023-07-25T06:42:05.294Z,100745.47
2023-07-25T06:44:31.725Z,100741.13
2023-07-25T06:46:58.227Z,100755.63
2023-07-25T06:49:24.717Z,100754.81
2023-07-25T06:51:51.137Z,100754.81
2023-07-25T06:54:17.595Z,100754.81
2023-07-25T06:56:44.028Z,100766.56
2023-07-25T06:59:10.479Z,100763.84
2023-07-25T07:01:36.910Z,100764.63
2023-07-25T07:04:03.356Z,100765.97
2023-07-25T07:06:29.789Z,100777.72
2023-07-25T07:08:56.220Z,100772.25
2023-07-25T07:11:22.646Z,100774.97
2023-07-25T07:13:49.140Z,100771.44
2023-07-25T07:16:15.580Z,100763.22
2023-07-25T07:18:42.069Z,100772.25
2023-07-25T07:21:08.964Z,100768.19
2023-07-25T07:23:35.350Z,100768.69
2023-07-25T07:26:01.811Z,100758.84
2023-07-25T07:28:28.324Z,100761.59
2023-07-25T07:30:54.795Z,100753.06
2023-07-25T07:33:21.268Z,100762.38
2023-07-25T07:35:47.689Z,100767.88
2023-07-25T07:38:14.178Z,100754.50
2023-07-25T07:40:40.762Z,100763.50
2023-07-25T07:43:07.134Z,100777.19
2023-07-25T07:45:33.626Z,100765.44
2023-07-25T07:48:01.585Z,100773.66
2023-07-25T07:50:29.693Z,100781.56
2023-07-25T07:52:56.154Z,100773.66
2023-07-25T07:55:22.979Z,100786.22
2023-07-25T07:57:49.491Z,100775.28
2023-07-25T08:00:16.332Z,100777.19
2023-07-25T08:02:44.092Z,100778.31
2023-07-25T08:05:11.370Z,100776.41
2023-07-25T08:07:38.220Z,100779.94
2023-07-25T08:10:05.040Z,100786.22
2023-07-25T08:12:31.747Z,100780.75
2023-07-25T08:14:58.236Z,100788.16
2023-07-25T08:17:24.751Z,100788.16
2023-07-25T08:19:51.509Z,100787.34
2023-07-25T08:22:18.338Z,100788.16
2023-07-25T08:24:44.958Z,100795.56
2023-07-25T08:27:11.514Z,100796.38
2023-07-25T08:29:41.680Z,100797.16
2023-07-25T08:32:08.988Z,100804.56
2023-07-25T08:34:35.806Z,100804.28
2023-07-25T08:37:02.388Z,100797.16
2023-07-25T08:39:28.797Z,100802.97
2023-07-25T08:41:56.288Z,100814.72
2023-07-25T08:44:22.841Z,100810.38
2023-07-25T08:46:51.347Z,100811.66
2023-07-25T08:49:18.568Z,100824.88
2023-07-25T08:51:45.290Z,100816.66
2023-07-25T08:54:16.306Z,100811.97
2023-07-25T08:56:42.804Z,100817.47
2023-07-25T08:59:11.392Z,100819.38
2023-07-25T09:01:38.063Z,100828.09
2023-07-25T09:04:05.038Z,100821.00
2023-07-25T09:06:31.996Z,100832.75
2023-07-25T09:08:58.637Z,100834.69
2023-07-25T09:11:25.061Z,100839.34
2023-07-25T09:13:51.534Z,100836.63
2023-07-25T09:16:18.163Z,100834.69
2023-07-25T09:18:44.578Z,100830.81
2023-07-25T09:21:12.882Z,100837.44
2023-07-25T09:23:40.580Z,100845.63
2023-07-25T09:26:09.749Z,100854.66
2023-07-25T09:28:36.222Z,100853.56
2023-07-25T09:31:05.258Z,100868.88
2023-07-25T09:33:31.885Z,100864.19
2023-07-25T09:35:58.748Z,100867.72
2023-07-25T09:38:25.175Z,100879.50
2023-07-25T09:40:51.641Z,100871.28
2023-07-25T09:43:24.534Z,100866.94
2023-07-25T09:45:51.969Z,100877.88
2023-07-25T09:48:18.754Z,100877.56
2023-07-25T09:50:48.044Z,100876.75
2023-07-25T09:53:15.551Z,100878.69
2023-07-25T09:55:42.606Z,100867.72
2023-07-25T09:58:09.589Z,100876.75
2023-07-25T10:00:36.349Z,100877.56
2023-07-25T10:03:02.999Z,100874.03
2023-07-25T10:05:30.089Z,100874.81
2023-07-25T10:08:00.493Z,100884.97
2023-07-25T10:10:27.540Z,100881.44
2023-07-25T10:12:54.578Z,100894.00
2023-07-25T10:15:21.433Z,100902.19
2023-07-25T10:17:48.392Z,100892.91
2023-07-25T10:20:22.999Z,100897.56
2023-07-25T10:22:49.600Z,100896.72
2023-07-25T10:25:20.154Z,100884.69
2023-07-25T10:27:47.488Z,100899.19
2023-07-25T10:30:24.369Z,100892.56
2023-07-25T10:32:58.190Z,100884.38
2023-07-25T10:35:40.249Z,100886.78
2023-07-25T10:38:13.077Z,100883.25
2023-07-25T10:40:53.940Z,100890.66
2023-07-25T10:43:27.343Z,100885.97
2023-07-25T10:45:54.480Z,100895.00
2023-07-25T10:48:31.058Z,100899.38
2023-07-25T10:50:58.513Z,100900.19
2023-07-25T10:53:25.796Z,100896.31
2023-07-25T10:56:07.869Z,100897.13
2023-07-25T10:58:36.679Z,100907.28
2023-07-25T11:01:03.294Z,100891.66
2023-07-25T11:03:29.693Z,100896.31
2023-07-25T11:06:08.368Z,100903.41
2023-07-25T11:08:35.646Z,100908.59
2023-07-25T11:11:06.279Z,100914.88
2023-07-25T11:13:33.777Z,100908.59
2023-07-25T11:16:02.163Z,100908.59
2023-07-25T11:18:28.761Z,100905.84
2023-07-25T11:21:02.142Z,100916.81
2023-07-25T11:23:28.787Z,100906.66
2023-07-25T11:25:55.836Z,100911.03
2023-07-25T11:28:23.005Z,100920.03
2023-07-25T11:30:49.598Z,100918.13
2023-07-25T11:33:16.190Z,100912.66
2023-07-25T11:35:42.927Z,100917.00
2023-07-25T11:38:10.744Z,100917.00
2023-07-25T11:40:41.627Z,100919.44
2023-07-25T11:43:12.499Z,100922.16
2023-07-25T11:45:39.470Z,100919.44
2023-07-25T11:48:09.328Z,100910.09
2023-07-25T11:50:36.424Z,100923.50
2023-07-25T11:53:03.280Z,100921.88
2023-07-25T11:55:29.898Z,100925.44
2023-07-25T11:57:56.695Z,100931.72
2023-07-25T12:00:23.957Z,100927.84
2023-07-25T12:02:50.497Z,100934.13
2023-07-25T12:05:28.008Z,100930.28
2023-07-25T12:07:59.491Z,100934.66
2023-07-25T12:10:27.341Z,100945.28
2023-07-25T12:12:55.105Z,100946.91
2023-07-25T12:15:22.126Z,100943.88
2023-07-25T12:17:48.610Z,100948.22
2023-07-25T12:20:15.241Z,100943.56
2023-07-25T12:22:41.654Z,100949.84
2023-07-25T12:25:08.371Z,100947.63
2023-07-25T12:27:34.866Z,100936.66
2023-07-25T12:30:01.346Z,100948.41
2023-07-25T12:32:27.802Z,100955.22
2023-07-25T12:35:01.793Z,100952.50
2023-07-25T12:37:28.284Z,100952.16
2023-07-25T12:39:54.701Z,100963.13
2023-07-25T12:42:21.136Z,100957.34
2023-07-25T12:44:47.618Z,100951.88
2023-07-25T12:47:14.051Z,100943.34
2023-07-25T12:49:40.526Z,100949.63
2023-07-25T12:52:07.306Z,100952.06
2023-07-25T12:54:35.856Z,100954.50
2023-07-25T12:57:02.345Z,100967.06
2023-07-25T12:59:28.785Z,100959.66
2023-07-25T13:01:55.427Z,100960.50
2023-07-25T13:04:21.992Z,100959.38
2023-07-25T13:06:48.835Z,100959.06
2023-07-25T13:09:15.278Z,100961.81
2023-07-25T13:11:41.909Z,100958.47
2023-07-25T13:14:08.793Z,100962.81
2023-07-25T13:16:35.295Z,100969.94
2023-07-25T13:19:01.849Z,100969.63
2023-07-25T13:21:28.428Z,100972.38
2023-07-25T13:23:54.946Z,100975.59
2023-07-25T13:26:21.383Z,100977.22
2023-07-25T13:28:48.167Z,100967.88
2023-07-25T13:31:14.617Z,100966.75
2023-07-25T13:33:41.050Z,100973.03
2023-07-25T13:36:07.785Z,100970.00
2023-07-25T13:38:34.223Z,100973.56
2023-07-25T13:41:00.682Z,100968.59
2023-07-25T13:43:27.160Z,100967.47
2023-07-25T13:45:53.746Z,100969.09
2023-07-25T13:48:21.640Z,100975.09
2023-07-25T13:50:53.819Z,100978.63
2023-07-25T13:53:21.756Z,100970.91
2023-07-25T13:55:48.173Z,100982.66
2023-07-25T13:58:23.591Z,100976.88
2023-07-25T14:00:50.900Z,100976.56
2023-07-25T14:03:17.317Z,100980.63
2023-07-25T14:05:43.801Z,100982.56
2023-07-25T14:08:10.458Z,100988.53
2023-07-25T14:10:37.567Z,100980.03
2023-07-25T14:13:04.383Z,100990.38
2023-07-25T14:15:31.791Z,100982.16
2023-07-25T14:17:58.566Z,100985.38
2023-07-25T14:20:25.436Z,100997.94
2023-07-25T14:22:51.836Z,100998.47
2023-07-25T14:25:18.363Z,100987.19
2023-07-25T14:27:44.949Z,100989.91
2023-07-25T14:30:12.572Z,100991.25
2023-07-25T14:32:39.061Z,100988.19
2023-07-25T14:35:05.688Z,100987.09
2023-07-25T14:37:44.244Z,100987.56
2023-07-25T14:40:18.562Z,100994.66
2023-07-25T14:42:45.094Z,100991.63
2023-07-25T14:45:12.018Z,100983.06
2023-07-25T14:47:38.770Z,100997.59
2023-07-25T14:50:05.590Z,100989.88
2023-07-25T14:52:32.028Z,100997.78
2023-07-25T14:54:58.531Z,101000.22
2023-07-25T14:57:24.933Z,101010.88
2023-07-25T14:59:51.328Z,101004.25
2023-07-25T15:02:18.776Z,101005.91
2023-07-25T15:04:45.683Z,101016.56
2023-07-25T15:07:12.147Z,101021.78
2023-07-25T15:09:38.700Z,101020.66
2023-07-25T15:12:05.442Z,101014.84
2023-07-25T15:14:31.913Z,101020.84
2023-07-25T15:16:58.543Z,101021.66
2023-07-25T15:19:26.613Z,101020.22
2023-07-25T15:21:54.836Z,101014.75
2023-07-25T15:24:21.292Z,101025.38
2023-07-25T15:26:48.168Z,101032.19
2023-07-25T15:29:14.692Z,101032.19
2023-07-25T15:31:41.115Z,101026.38
2023-07-25T15:34:07.530Z,101039.78
2023-07-25T15:36:33.943Z,101036.75
2023-07-25T15:39:00.432Z,101037.53
2023-07-25T15:41:26.883Z,101036.75
2023-07-25T15:43:53.529Z,101030.94
2023-07-25T15:46:20.034Z,101034.47
2023-07-25T15:48:48.591Z,101035.31
2023-07-25T15:51:15.353Z,101046.78
2023-07-25T15:53:41.826Z,101044.84
2023-07-25T15:56:08.388Z,101052.78
2023-07-25T15:58:34.806Z,101055.53
2023-07-25T16:01:01.682Z,101056.31
2023-07-25T16:03:28.285Z,101054.38
2023-07-25T16:05:54.738Z,101055.19
2023-07-25T16:08:21.147Z,101051.31
2023-07-25T16:10:47.654Z,101051.31
2023-07-25T16:13:14.970Z,101055.72
2023-07-25T16:15:41.383Z,101055.38
2023-07-25T16:18:07.886Z,101059.75
2023-07-25T16:20:34.337Z,101063.28
2023-07-25T16:23:00.910Z,101064.13
2023-07-25T16:25:27.665Z,101063.00
2023-07-25T16:27:54.182Z,101052.03
2023-07-25T16:30:20.586Z,101054.75
2023-07-25T16:32:47.127Z,101046.22
2023-07-25T16:35:13.835Z,101044.28
2023-07-25T16:37:41.472Z,101043.16
2023-07-25T16:40:08.181Z,101041.22
2023-07-25T16:42:34.606Z,101047.53
2023-07-25T16:45:01.444Z,101046.41
2023-07-25T16:47:28.008Z,101051.88
2023-07-25T16:49:54.456Z,101059.31
2023-07-25T16:52:20.910Z,101057.88
2023-07-25T16:54:47.329Z,101050.47
2023-07-25T16:57:13.821Z,101056.75
2023-07-25T16:59:40.233Z,101058.38
2023-07-25T17:02:06.932Z,101047.72
2023-07-25T17:04:33.408Z,101057.56
2023-07-25T17:06:59.885Z,101057.56
2023-07-25T17:09:26.333Z,101057.28
2023-07-25T17:11:53.058Z,101053.69
2023-07-25T17:14:19.473Z,101055.34
2023-07-25T17:16:46.013Z,101061.91
2023-07-25T17:19:14.681Z,101055.34
2023-07-25T17:21:42.107Z,101054.53
2023-07-25T17:24:09.026Z,101051.78
2023-07-25T17:26:35.991Z,101058.06
2023-07-25T17:29:02.502Z,101062.44
2023-07-25T17:31:29.098Z,101065.97
2023-07-25T17:33:55.605Z,101058.56
2023-07-25T17:36:22.042Z,101070.34
2023-07-25T17:38:48.515Z,101063.25
2023-07-25T17:41:15.025Z,101061.31
2023-07-25T17:43:41.421Z,101065.97
2023-07-25T17:46:07.930Z,101058.56
2023-07-25T17:48:34.462Z,101053.06
2023-07-25T17:51:01.128Z,101055.81
2023-07-25T17:53:27.704Z,101055.81
2023-07-25T17:55:55.746Z,101064.03
2023-07-25T17:58:22.231Z,101058.56
2023-07-25T18:00:50.430Z,101063.25
2023-07-25T18:03:17.206Z,101063.25
2023-07-25T18:05:46.290Z,101057.75
2023-07-25T18:08:12.822Z,101061.31
2023-07-25T18:10:39.257Z,101054.19
2023-07-25T18:13:05.697Z,101056.94
2023-07-25T18:15:32.167Z,101056.13
2023-07-25T18:17:58.689Z,101054.53
2023-07-25T18:20:25.182Z,101047.91
2023-07-25T18:22:51.677Z,101054.19
2023-07-25T18:25:18.208Z,101060.81
2023-07-25T18:27:44.812Z,101058.88
2023-07-25T18:30:11.462Z,101060.81
2023-07-25T18:32:37.924Z,101066.59
2023-07-25T18:35:06.590Z,101072.59
2023-07-25T18:37:33.192Z,101065.78
2023-07-25T18:39:59.760Z,101074.03
2023-07-25T18:42:26.283Z,101074.03
2023-07-25T18:44:52.757Z,101074.03
2023-07-25T18:47:33.695Z,101076.28
2023-07-25T18:50:01.350Z,101077.09
2023-07-25T18:52:27.880Z,101081.78
2023-07-25T18:54:54.327Z,101077.38
2023-07-25T18:57:21.552Z,101083.69
2023-07-25T18:59:48.580Z,101085.63
2023-07-25T19:02:15.079Z,101084.81
2023-07-25T19:04:42.106Z,101088.69
2023-07-25T19:07:08.798Z,101087.88
2023-07-25T19:09:35.248Z,101083.53
2023-07-25T19:12:01.697Z,101090.91
2023-07-25T19:14:28.122Z,101102.72
2023-07-25T19:16:54.712Z,101095.59
2023-07-25T19:19:21.208Z,101099.47
2023-07-25T19:21:47.592Z,101091.25
2023-07-25T19:24:13.972Z,101103.34
2023-07-25T19:26:40.450Z,101097.06
2023-07-25T19:29:06.902Z,101097.06
2023-07-25T19:31:33.333Z,101094.31
2023-07-25T19:33:59.791Z,101100.09
2023-07-25T19:36:26.221Z,101100.09
2023-07-25T19:38:52.694Z,101096.53
2023-07-25T19:41:19.816Z,101102.03
2023-07-25T19:43:46.428Z,101093.00
2023-07-25T19:46:13.034Z,101099.59
2023-07-25T19:48:39.507Z,101100.72
2023-07-25T19:51:10.473Z,101106.19
2023-07-25T19:53:37.406Z,101111.69
2023-07-25T19:56:03.989Z,101108.13
2023-07-25T19:58:30.455Z,101119.44
2023-07-25T20:00:57.866Z,101113.13
2023-07-25T20:03:24.415Z,101122.16
2023-07-25T20:05:51.051Z,101114.22
2023-07-25T20:08:17.564Z,101123.31
2023-07-25T20:10:44.213Z,101123.31
2023-07-25T20:13:10.687Z,101125.19
2023-07-25T20:15:37.115Z,101129.88
2023-07-25T20:18:03.767Z,101129.88
2023-07-25T20:20:30.355Z,101126.34
2023-07-25T20:22:56.864Z,101131.53
2023-07-25T20:25:23.374Z,101134.28
2023-07-25T20:27:49.807Z,101137.00
2023-07-25T20:30:16.247Z,101125.72
2023-07-25T20:32:42.784Z,101138.31
2023-07-25T20:35:09.281Z,101142.19
2023-07-25T20:37:35.851Z,101138.31
2023-07-25T20:40:02.289Z,101128.47
2023-07-25T20:42:28.688Z,101131.22
2023-07-25T20:44:55.212Z,101132.03
2023-07-25T20:47:21.710Z,101138.63
2023-07-25T20:49:48.328Z,101136.69
2023-07-25T20:52:14.768Z,101135.09
2023-07-25T20:54:41.273Z,101137.81
2023-07-25T20:57:07.730Z,101142.50
2023-07-25T20:59:34.182Z,101142.50
2023-07-25T21:02:00.723Z,101139.75
2023-07-25T21:04:28.890Z,101139.75
2023-07-25T21:06:55.717Z,101139.75
2023-07-25T21:09:22.146Z,101137.00
2023-07-25T21:11:48.592Z,101136.19
2023-07-25T21:14:15.009Z,101136.19
2023-07-25T21:16:41.763Z,101147.16
2023-07-25T21:19:08.174Z,101142.50
2023-07-25T21:21:35.164Z,101142.50
2023-07-25T21:24:01.731Z,101147.16
2023-07-25T21:26:28.293Z,101145.53
2023-07-25T21:28:54.925Z,101146.34
2023-07-25T21:31:21.479Z,101156.50
2023-07-25T21:33:47.916Z,101152.16
2023-07-25T21:36:14.635Z,101145.53
2023-07-25T21:38:41.749Z,101146.66
2023-07-25T21:41:09.045Z,101150.22
2023-07-25T21:43:35.860Z,101145.88
2023-07-25T21:46:02.792Z,101149.41
2023-07-25T21:48:30.334Z,101143.13
2023-07-25T21:50:57.813Z,101151.34
2023-07-25T21:53:28.302Z,101148.09
2023-07-25T21:55:55.262Z,101147.78
2023-07-25T21:58:22.102Z,101148.91
2023-07-25T22:00:48.545Z,101146.97
2023-07-25T22:03:15.963Z,101150.81
2023-07-25T22:05:42.581Z,101153.56
2023-07-25T22:08:09.356Z,101159.06
2023-07-25T22:10:36.018Z,101146.47
2023-07-25T22:13:02.563Z,101156.31
2023-07-25T22:15:29.385Z,101158.25
2023-07-25T22:17:55.965Z,101154.69
2023-07-25T22:20:22.472Z,101156.63
2023-07-25T22:22:49.900Z,101156.63
2023-07-25T22:25:16.360Z,101152.25
2023-07-25T22:27:42.957Z,101153.09
2023-07-25T22:30:09.549Z,101145.97
2023-07-25T22:32:36.451Z,101152.25
2023-07-25T22:35:03.100Z,101145.97
2023-07-25T22:37:30.362Z,101154.19
2023-07-25T22:39:56.797Z,101151.44
2023-07-25T22:42:23.689Z,101148.69
2023-07-25T22:44:50.140Z,101151.75
2023-07-25T22:47:16.830Z,101155.31
2023-07-25T22:49:43.237Z,101156.44
2023-07-25T22:52:09.740Z,101153.69
2023-07-25T22:54:36.129Z,101158.38
2023-07-25T22:57:03.097Z,101150.94
2023-07-25T22:59:29.509Z,101157.56
2023-07-25T23:01:55.971Z,101145.75
2023-07-25T23:04:22.391Z,101148.50
2023-07-25T23:06:48.891Z,101147.69
2023-07-25T23:09:15.334Z,101144.94
2023-07-25T23:11:41.755Z,101150.44
2023-07-25T23:14:08.199Z,101144.94
2023-07-25T23:16:35.069Z,101142.53
2023-07-25T23:19:01.592Z,101140.91
2023-07-25T23:21:28.259Z,101140.91
2023-07-25T23:23:54.799Z,101144.47
2023-07-25T23:26:21.410Z,101141.22
2023-07-25T23:28:47.920Z,101139.28
2023-07-25T23:31:14.371Z,101141.22
2023-07-25T23:33:40.885Z,101142.34
2023-07-25T23:36:07.422Z,101147.00
2023-07-25T23:38:33.895Z,101148.94
2023-07-25T23:41:00.371Z,101154.44
2023-07-25T23:43:26.788Z,101157.19
2023-07-25T23:45:53.497Z,101152.78
2023-07-25T23:48:20.829Z,101168.44
2023-07-25T23:50:47.495Z,101156.66
2023-07-25T23:53:13.949Z,101151.97
2023-07-25T23:55:40.442Z,101164.88
2023-07-25T23:58:06.906Z,101154.22
